sensor_id;sensor_type;location;lat;lon;timestamp;temperature;humidity
74923;HTU21D;64715;44.760;37.678;2023-02-28T00:00:41;9.68;64.23
74923;HTU21D;64715;44.760;37.678;2023-02-28T00:01:44;9.61;64.63
74923;HTU21D;64715;44.760;37.678;2023-02-28T00:02:45;9.57;64.56
74923;HTU21D;64715;44.760;37.678;2023-02-28T00:03:46;9.55;64.77
74923;HTU21D;64715;44.760;37.678;2023-02-28T00:04:48;9.51;64.98
74923;HTU21D;64715;44.760;37.678;2023-02-28T00:05:53;9.45;64.80
74923;HTU21D;64715;44.760;37.678;2023-02-28T00:06:54;9.40;64.72
74923;HTU21D;64715;44.760;37.678;2023-02-28T00:07:55;9.36;65.05
74923;HTU21D;64715;44.760;37.678;2023-02-28T00:08:56;9.31;64.88
74923;HTU21D;64715;44.760;37.678;2023-02-28T00:09:57;9.25;65.29
74923;HTU21D;64715;44.760;37.678;2023-02-28T00:11:03;9.21;65.08
74923;HTU21D;64715;44.760;37.678;2023-02-28T00:12:05;9.16;65.40
74923;HTU21D;64715;44.760;37.678;2023-02-28T00:13:10;9.11;65.37
74923;HTU21D;64715;44.760;37.678;2023-02-28T00:14:14;9.06;65.54
74923;HTU21D;64715;44.760;37.678;2023-02-28T00:15:27;9.02;65.78
74923;HTU21D;64715;44.760;37.678;2023-02-28T00:16:27;8.98;65.82
74923;HTU21D;64715;44.760;37.678;2023-02-28T00:17:29;8.93;66.18
74923;HTU21D;64715;44.760;37.678;2023-02-28T00:18:30;8.88;66.43
74923;HTU21D;64715;44.760;37.678;2023-02-28T00:19:31;8.88;66.23
74923;HTU21D;64715;44.760;37.678;2023-02-28T00:20:32;8.80;66.41
74923;HTU21D;64715;44.760;37.678;2023-02-28T00:21:33;8.80;66.49
74923;HTU21D;64715;44.760;37.678;2023-02-28T00:22:34;8.79;66.70
74923;HTU21D;64715;44.760;37.678;2023-02-28T00:23:35;8.74;66.53
74923;HTU21D;64715;44.760;37.678;2023-02-28T00:24:36;8.73;66.72
74923;HTU21D;64715;44.760;37.678;2023-02-28T00:25:55;8.73;67.18
74923;HTU21D;64715;44.760;37.678;2023-02-28T00:26:57;8.64;66.91
74923;HTU21D;64715;44.760;37.678;2023-02-28T00:27:58;8.63;67.12
74923;HTU21D;64715;44.760;37.678;2023-02-28T00:29:00;8.61;67.35
74923;HTU21D;64715;44.760;37.678;2023-02-28T00:30:01;8.58;67.34
74923;HTU21D;64715;44.760;37.678;2023-02-28T00:31:02;8.55;67.45
74923;HTU21D;64715;44.760;37.678;2023-02-28T00:32:05;8.53;67.72
74923;HTU21D;64715;44.760;37.678;2023-02-28T00:33:17;8.48;67.43
74923;HTU21D;64715;44.760;37.678;2023-02-28T00:34:18;8.45;67.64
74923;HTU21D;64715;44.760;37.678;2023-02-28T00:35:19;8.42;67.66
74923;HTU21D;64715;44.760;37.678;2023-02-28T00:36:20;8.42;67.81
74923;HTU21D;64715;44.760;37.678;2023-02-28T00:37:22;8.41;67.74
74923;HTU21D;64715;44.760;37.678;2023-02-28T00:38:23;8.36;68.12
74923;HTU21D;64715;44.760;37.678;2023-02-28T00:39:24;8.32;68.08
74923;HTU21D;64715;44.760;37.678;2023-02-28T00:40:25;8.31;68.26
74923;HTU21D;64715;44.760;37.678;2023-02-28T00:41:27;8.30;68.20
74923;HTU21D;64715;44.760;37.678;2023-02-28T00:42:28;8.27;68.81
74923;HTU21D;64715;44.760;37.678;2023-02-28T00:43:29;8.24;68.58
74923;HTU21D;64715;44.760;37.678;2023-02-28T00:44:31;8.23;68.45
74923;HTU21D;64715;44.760;37.678;2023-02-28T00:45:32;8.21;68.49
74923;HTU21D;64715;44.760;37.678;2023-02-28T00:46:36;8.21;68.75
74923;HTU21D;64715;44.760;37.678;2023-02-28T00:47:59;8.17;68.70
74923;HTU21D;64715;44.760;37.678;2023-02-28T00:49:10;8.13;68.97
74923;HTU21D;64715;44.760;37.678;2023-02-28T00:50:11;8.13;68.94
74923;HTU21D;64715;44.760;37.678;2023-02-28T00:51:12;8.11;68.98
74923;HTU21D;64715;44.760;37.678;2023-02-28T00:52:13;8.07;69.12
74923;HTU21D;64715;44.760;37.678;2023-02-28T00:53:14;8.07;69.01
74923;HTU21D;64715;44.760;37.678;2023-02-28T00:54:15;8.05;69.12
74923;HTU21D;64715;44.760;37.678;2023-02-28T00:55:16;8.03;69.31
74923;HTU21D;64715;44.760;37.678;2023-02-28T00:56:17;8.02;69.47
74923;HTU21D;64715;44.760;37.678;2023-02-28T00:57:27;7.99;69.70
74923;HTU21D;64715;44.760;37.678;2023-02-28T00:58:39;7.96;69.61
74923;HTU21D;64715;44.760;37.678;2023-02-28T00:59:40;7.96;69.50
74923;HTU21D;64715;44.760;37.678;2023-02-28T01:00:41;7.91;69.78
74923;HTU21D;64715;44.760;37.678;2023-02-28T01:01:44;7.90;70.02
74923;HTU21D;64715;44.760;37.678;2023-02-28T01:02:46;7.90;70.06
74923;HTU21D;64715;44.760;37.678;2023-02-28T01:03:57;7.88;70.25
74923;HTU21D;64715;44.760;37.678;2023-02-28T01:05:15;7.87;70.24
74923;HTU21D;64715;44.760;37.678;2023-02-28T01:06:16;7.86;70.24
74923;HTU21D;64715;44.760;37.678;2023-02-28T01:07:17;7.85;70.35
74923;HTU21D;64715;44.760;37.678;2023-02-28T01:08:18;7.85;70.35
74923;HTU21D;64715;44.760;37.678;2023-02-28T01:09:19;7.84;70.39
74923;HTU21D;64715;44.760;37.678;2023-02-28T01:10:20;7.83;70.61
74923;HTU21D;64715;44.760;37.678;2023-02-28T01:11:21;7.81;70.55
74923;HTU21D;64715;44.760;37.678;2023-02-28T01:12:22;7.83;70.61
74923;HTU21D;64715;44.760;37.678;2023-02-28T01:13:23;7.83;70.69
74923;HTU21D;64715;44.760;37.678;2023-02-28T01:14:25;7.84;70.52
74923;HTU21D;64715;44.760;37.678;2023-02-28T01:15:27;7.84;70.45
74923;HTU21D;64715;44.760;37.678;2023-02-28T01:16:28;7.88;70.66
74923;HTU21D;64715;44.760;37.678;2023-02-28T01:17:29;7.92;70.52
74923;HTU21D;64715;44.760;37.678;2023-02-28T01:18:30;7.93;70.35
74923;HTU21D;64715;44.760;37.678;2023-02-28T01:19:32;7.96;70.52
74923;HTU21D;64715;44.760;37.678;2023-02-28T01:20:33;7.97;70.26
74923;HTU21D;64715;44.760;37.678;2023-02-28T01:21:36;7.97;70.03
74923;HTU21D;64715;44.760;37.678;2023-02-28T01:22:40;7.98;70.26
74923;HTU21D;64715;44.760;37.678;2023-02-28T01:23:43;7.99;70.35
74923;HTU21D;64715;44.760;37.678;2023-02-28T01:24:44;7.98;70.01
74923;HTU21D;64715;44.760;37.678;2023-02-28T01:25:47;8.00;69.85
74923;HTU21D;64715;44.760;37.678;2023-02-28T01:26:47;8.02;69.82
74923;HTU21D;64715;44.760;37.678;2023-02-28T01:27:48;8.03;69.97
74923;HTU21D;64715;44.760;37.678;2023-02-28T01:28:50;8.03;69.87
74923;HTU21D;64715;44.760;37.678;2023-02-28T01:29:52;8.02;69.78
74923;HTU21D;64715;44.760;37.678;2023-02-28T01:30:53;8.04;69.80
74923;HTU21D;64715;44.760;37.678;2023-02-28T01:31:54;8.03;70.28
74923;HTU21D;64715;44.760;37.678;2023-02-28T01:32:55;8.02;69.76
74923;HTU21D;64715;44.760;37.678;2023-02-28T01:33:56;8.02;69.85
74923;HTU21D;64715;44.760;37.678;2023-02-28T01:35:02;8.04;69.52
74923;HTU21D;64715;44.760;37.678;2023-02-28T01:36:06;8.05;69.66
74923;HTU21D;64715;44.760;37.678;2023-02-28T01:37:07;8.06;69.39
74923;HTU21D;64715;44.760;37.678;2023-02-28T01:38:08;8.03;69.93
74923;HTU21D;64715;44.760;37.678;2023-02-28T01:39:10;8.03;69.57
74923;HTU21D;64715;44.760;37.678;2023-02-28T01:40:12;8.04;69.67
74923;HTU21D;64715;44.760;37.678;2023-02-28T01:41:23;8.01;69.60
74923;HTU21D;64715;44.760;37.678;2023-02-28T01:42:24;8.03;69.68
74923;HTU21D;64715;44.760;37.678;2023-02-28T01:43:28;8.02;69.55
74923;HTU21D;64715;44.760;37.678;2023-02-28T01:45:57;8.03;69.69
74923;HTU21D;64715;44.760;37.678;2023-02-28T01:46:59;8.03;69.46
74923;HTU21D;64715;44.760;37.678;2023-02-28T01:48:07;8.07;69.65
74923;HTU21D;64715;44.760;37.678;2023-02-28T01:49:13;8.06;69.49
74923;HTU21D;64715;44.760;37.678;2023-02-28T01:50:19;8.11;69.61
74923;HTU21D;64715;44.760;37.678;2023-02-28T01:51:39;8.13;69.42
74923;HTU21D;64715;44.760;37.678;2023-02-28T01:52:49;8.11;69.72
74923;HTU21D;64715;44.760;37.678;2023-02-28T01:53:55;8.08;69.71
74923;HTU21D;64715;44.760;37.678;2023-02-28T01:54:59;8.09;69.68
74923;HTU21D;64715;44.760;37.678;2023-02-28T01:56:04;8.09;69.57
74923;HTU21D;64715;44.760;37.678;2023-02-28T01:57:11;8.07;69.47
74923;HTU21D;64715;44.760;37.678;2023-02-28T01:58:14;8.06;69.40
74923;HTU21D;64715;44.760;37.678;2023-02-28T01:59:32;8.05;69.51
74923;HTU21D;64715;44.760;37.678;2023-02-28T02:00:34;8.02;69.14
74923;HTU21D;64715;44.760;37.678;2023-02-28T02:01:36;8.02;69.59
74923;HTU21D;64715;44.760;37.678;2023-02-28T02:02:37;8.03;69.52
74923;HTU21D;64715;44.760;37.678;2023-02-28T02:03:38;8.00;69.82
74923;HTU21D;64715;44.760;37.678;2023-02-28T02:06:04;8.06;69.74
74923;HTU21D;64715;44.760;37.678;2023-02-28T02:07:05;8.06;69.48
74923;HTU21D;64715;44.760;37.678;2023-02-28T02:08:12;8.06;69.81
74923;HTU21D;64715;44.760;37.678;2023-02-28T02:09:14;8.03;69.77
74923;HTU21D;64715;44.760;37.678;2023-02-28T02:10:29;8.04;69.88
74923;HTU21D;64715;44.760;37.678;2023-02-28T02:11:32;8.01;69.77
74923;HTU21D;64715;44.760;37.678;2023-02-28T02:15:06;7.93;69.51
74923;HTU21D;64715;44.760;37.678;2023-02-28T02:17:53;7.90;69.68
74923;HTU21D;64715;44.760;37.678;2023-02-28T02:26:17;7.67;70.28
74923;HTU21D;64715;44.760;37.678;2023-02-28T02:36:23;7.37;70.37
74923;HTU21D;64715;44.760;37.678;2023-02-28T02:38:45;7.33;70.61
74923;HTU21D;64715;44.760;37.678;2023-02-28T02:40:13;7.30;70.76
74923;HTU21D;64715;44.760;37.678;2023-02-28T02:45:09;7.19;71.42
74923;HTU21D;64715;44.760;37.678;2023-02-28T02:46:42;7.18;71.35
74923;HTU21D;64715;44.760;37.678;2023-02-28T02:47:56;7.12;71.22
74923;HTU21D;64715;44.760;37.678;2023-02-28T02:49:00;7.12;71.21
74923;HTU21D;64715;44.760;37.678;2023-02-28T02:50:06;7.11;71.34
74923;HTU21D;64715;44.760;37.678;2023-02-28T02:51:14;7.09;71.33
74923;HTU21D;64715;44.760;37.678;2023-02-28T02:52:19;7.07;71.43
74923;HTU21D;64715;44.760;37.678;2023-02-28T02:53:28;7.07;71.71
74923;HTU21D;64715;44.760;37.678;2023-02-28T02:54:37;7.07;71.90
74923;HTU21D;64715;44.760;37.678;2023-02-28T02:55:41;7.05;72.00
74923;HTU21D;64715;44.760;37.678;2023-02-28T02:56:46;7.04;71.96
74923;HTU21D;64715;44.760;37.678;2023-02-28T02:57:58;7.03;71.85
74923;HTU21D;64715;44.760;37.678;2023-02-28T02:59:03;7.03;71.95
74923;HTU21D;64715;44.760;37.678;2023-02-28T03:00:09;7.04;72.20
74923;HTU21D;64715;44.760;37.678;2023-02-28T03:01:14;7.01;72.13
74923;HTU21D;64715;44.760;37.678;2023-02-28T03:02:17;7.01;72.25
74923;HTU21D;64715;44.760;37.678;2023-02-28T03:03:20;7.01;72.06
74923;HTU21D;64715;44.760;37.678;2023-02-28T03:04:38;6.99;72.11
74923;HTU21D;64715;44.760;37.678;2023-02-28T03:05:53;6.99;72.53
74923;HTU21D;64715;44.760;37.678;2023-02-28T03:06:54;6.98;72.14
74923;HTU21D;64715;44.760;37.678;2023-02-28T03:07:56;6.95;72.22
74923;HTU21D;64715;44.760;37.678;2023-02-28T03:08:57;6.98;72.61
74923;HTU21D;64715;44.760;37.678;2023-02-28T03:09:58;6.93;72.67
74923;HTU21D;64715;44.760;37.678;2023-02-28T03:11:01;6.93;72.54
74923;HTU21D;64715;44.760;37.678;2023-02-28T03:12:03;6.91;72.49
74923;HTU21D;64715;44.760;37.678;2023-02-28T03:17:24;6.86;72.57
74923;HTU21D;64715;44.760;37.678;2023-02-28T03:18:41;6.86;72.70
74923;HTU21D;64715;44.760;37.678;2023-02-28T03:21:20;6.86;72.97
74923;HTU21D;64715;44.760;37.678;2023-02-28T03:25:20;6.86;73.03
74923;HTU21D;64715;44.760;37.678;2023-02-28T03:26:24;6.86;73.19
74923;HTU21D;64715;44.760;37.678;2023-02-28T03:27:34;6.86;73.32
74923;HTU21D;64715;44.760;37.678;2023-02-28T03:28:48;6.86;73.29
74923;HTU21D;64715;44.760;37.678;2023-02-28T03:30:14;6.87;73.28
74923;HTU21D;64715;44.760;37.678;2023-02-28T03:31:28;6.86;73.24
74923;HTU21D;64715;44.760;37.678;2023-02-28T03:32:38;6.86;73.03
74923;HTU21D;64715;44.760;37.678;2023-02-28T03:34:17;6.86;73.34
74923;HTU21D;64715;44.760;37.678;2023-02-28T03:35:24;6.83;73.23
74923;HTU21D;64715;44.760;37.678;2023-02-28T03:36:29;6.84;73.08
74923;HTU21D;64715;44.760;37.678;2023-02-28T03:37:35;6.85;73.18
74923;HTU21D;64715;44.760;37.678;2023-02-28T03:38:38;6.85;73.38
74923;HTU21D;64715;44.760;37.678;2023-02-28T03:39:59;6.83;73.50
74923;HTU21D;64715;44.760;37.678;2023-02-28T03:41:09;6.82;73.22
74923;HTU21D;64715;44.760;37.678;2023-02-28T03:42:15;6.84;73.35
74923;HTU21D;64715;44.760;37.678;2023-02-28T03:43:24;6.83;73.32
74923;HTU21D;64715;44.760;37.678;2023-02-28T03:44:35;6.86;73.42
74923;HTU21D;64715;44.760;37.678;2023-02-28T03:45:39;6.89;73.36
74923;HTU21D;64715;44.760;37.678;2023-02-28T03:46:44;6.89;73.09
74923;HTU21D;64715;44.760;37.678;2023-02-28T03:48:00;6.91;73.38
74923;HTU21D;64715;44.760;37.678;2023-02-28T03:49:15;6.95;73.36
74923;HTU21D;64715;44.760;37.678;2023-02-28T03:50:34;7.00;73.30
74923;HTU21D;64715;44.760;37.678;2023-02-28T03:51:36;7.04;73.36
74923;HTU21D;64715;44.760;37.678;2023-02-28T03:52:47;7.10;73.18
74923;HTU21D;64715;44.760;37.678;2023-02-28T03:53:53;7.12;73.22
74923;HTU21D;64715;44.760;37.678;2023-02-28T03:54:59;7.17;73.03
74923;HTU21D;64715;44.760;37.678;2023-02-28T03:56:21;7.24;73.32
74923;HTU21D;64715;44.760;37.678;2023-02-28T03:57:52;7.28;73.09
74923;HTU21D;64715;44.760;37.678;2023-02-28T03:59:02;7.35;72.90
74923;HTU21D;64715;44.760;37.678;2023-02-28T04:00:19;7.39;72.89
74923;HTU21D;64715;44.760;37.678;2023-02-28T04:01:25;7.41;72.98
74923;HTU21D;64715;44.760;37.678;2023-02-28T04:02:28;7.44;72.36
74923;HTU21D;64715;44.760;37.678;2023-02-28T04:03:30;7.48;72.69
74923;HTU21D;64715;44.760;37.678;2023-02-28T04:04:31;7.53;72.57
74923;HTU21D;64715;44.760;37.678;2023-02-28T04:05:32;7.59;72.36
74923;HTU21D;64715;44.760;37.678;2023-02-28T04:06:36;7.62;72.13
74923;HTU21D;64715;44.760;37.678;2023-02-28T04:07:37;7.67;72.00
74923;HTU21D;64715;44.760;37.678;2023-02-28T04:08:38;7.67;71.64
74923;HTU21D;64715;44.760;37.678;2023-02-28T04:09:39;7.67;72.01
74923;HTU21D;64715;44.760;37.678;2023-02-28T04:10:41;7.68;71.61
74923;HTU21D;64715;44.760;37.678;2023-02-28T04:11:46;7.68;71.73
74923;HTU21D;64715;44.760;37.678;2023-02-28T04:12:49;7.70;71.54
74923;HTU21D;64715;44.760;37.678;2023-02-28T04:13:50;7.67;71.40
74923;HTU21D;64715;44.760;37.678;2023-02-28T04:14:51;7.69;71.31
74923;HTU21D;64715;44.760;37.678;2023-02-28T04:15:52;7.69;71.24
74923;HTU21D;64715;44.760;37.678;2023-02-28T04:16:53;7.65;71.19
74923;HTU21D;64715;44.760;37.678;2023-02-28T04:17:54;7.64;71.30
74923;HTU21D;64715;44.760;37.678;2023-02-28T04:18:56;7.63;71.26
74923;HTU21D;64715;44.760;37.678;2023-02-28T04:20:03;7.60;71.13
74923;HTU21D;64715;44.760;37.678;2023-02-28T04:21:10;7.58;71.22
74923;HTU21D;64715;44.760;37.678;2023-02-28T04:22:13;7.59;71.15
74923;HTU21D;64715;44.760;37.678;2023-02-28T04:23:14;7.57;71.26
74923;HTU21D;64715;44.760;37.678;2023-02-28T04:24:18;7.57;71.19
74923;HTU21D;64715;44.760;37.678;2023-02-28T04:25:19;7.56;71.13
74923;HTU21D;64715;44.760;37.678;2023-02-28T04:26:20;7.57;71.33
74923;HTU21D;64715;44.760;37.678;2023-02-28T04:27:21;7.59;71.19
74923;HTU21D;64715;44.760;37.678;2023-02-28T04:28:22;7.63;71.55
74923;HTU21D;64715;44.760;37.678;2023-02-28T04:29:26;7.69;71.27
74923;HTU21D;64715;44.760;37.678;2023-02-28T04:30:27;7.73;71.19
74923;HTU21D;64715;44.760;37.678;2023-02-28T04:31:30;7.78;71.10
74923;HTU21D;64715;44.760;37.678;2023-02-28T04:32:31;7.81;70.77
74923;HTU21D;64715;44.760;37.678;2023-02-28T04:33:32;7.85;71.10
74923;HTU21D;64715;44.760;37.678;2023-02-28T04:34:34;7.87;70.92
74923;HTU21D;64715;44.760;37.678;2023-02-28T04:35:35;7.89;70.97
74923;HTU21D;64715;44.760;37.678;2023-02-28T04:36:36;7.94;70.70
74923;HTU21D;64715;44.760;37.678;2023-02-28T04:37:38;7.98;70.77
74923;HTU21D;64715;44.760;37.678;2023-02-28T04:38:40;8.01;70.84
74923;HTU21D;64715;44.760;37.678;2023-02-28T04:39:42;8.03;70.70
74923;HTU21D;64715;44.760;37.678;2023-02-28T04:40:43;8.05;70.39
74923;HTU21D;64715;44.760;37.678;2023-02-28T04:41:44;8.06;70.51
74923;HTU21D;64715;44.760;37.678;2023-02-28T04:42:46;8.08;70.58
74923;HTU21D;64715;44.760;37.678;2023-02-28T04:43:47;8.11;70.37
74923;HTU21D;64715;44.760;37.678;2023-02-28T04:44:48;8.12;70.27
74923;HTU21D;64715;44.760;37.678;2023-02-28T04:45:49;8.14;70.52
74923;HTU21D;64715;44.760;37.678;2023-02-28T04:46:50;8.17;70.48
74923;HTU21D;64715;44.760;37.678;2023-02-28T04:47:51;8.21;70.32
74923;HTU21D;64715;44.760;37.678;2023-02-28T04:48:52;8.27;70.55
74923;HTU21D;64715;44.760;37.678;2023-02-28T04:49:55;8.33;70.00
74923;HTU21D;64715;44.760;37.678;2023-02-28T04:51:00;8.37;70.00
74923;HTU21D;64715;44.760;37.678;2023-02-28T04:52:03;8.46;69.79
74923;HTU21D;64715;44.760;37.678;2023-02-28T04:53:04;8.51;69.76
74923;HTU21D;64715;44.760;37.678;2023-02-28T04:54:06;8.57;69.84
74923;HTU21D;64715;44.760;37.678;2023-02-28T04:55:07;8.62;69.70
74923;HTU21D;64715;44.760;37.678;2023-02-28T04:56:12;8.70;69.55
74923;HTU21D;64715;44.760;37.678;2023-02-28T04:57:13;8.78;69.38
74923;HTU21D;64715;44.760;37.678;2023-02-28T04:58:14;8.83;69.16
74923;HTU21D;64715;44.760;37.678;2023-02-28T04:59:15;8.92;69.15
74923;HTU21D;64715;44.760;37.678;2023-02-28T05:00:17;8.97;68.92
74923;HTU21D;64715;44.760;37.678;2023-02-28T05:01:25;9.06;68.78
74923;HTU21D;64715;44.760;37.678;2023-02-28T05:02:26;9.17;68.70
74923;HTU21D;64715;44.760;37.678;2023-02-28T05:03:27;9.23;68.75
74923;HTU21D;64715;44.760;37.678;2023-02-28T05:04:28;9.33;68.41
74923;HTU21D;64715;44.760;37.678;2023-02-28T05:05:29;9.45;68.37
74923;HTU21D;64715;44.760;37.678;2023-02-28T05:06:32;9.55;67.81
74923;HTU21D;64715;44.760;37.678;2023-02-28T05:07:33;9.65;67.84
74923;HTU21D;64715;44.760;37.678;2023-02-28T05:08:34;9.79;67.46
74923;HTU21D;64715;44.760;37.678;2023-02-28T05:09:35;9.90;67.43
74923;HTU21D;64715;44.760;37.678;2023-02-28T05:10:36;10.01;67.11
74923;HTU21D;64715;44.760;37.678;2023-02-28T05:11:38;10.10;66.43
74923;HTU21D;64715;44.760;37.678;2023-02-28T05:12:39;10.21;66.10
74923;HTU21D;64715;44.760;37.678;2023-02-28T05:13:41;10.30;65.91
74923;HTU21D;64715;44.760;37.678;2023-02-28T05:14:42;10.36;65.56
74923;HTU21D;64715;44.760;37.678;2023-02-28T05:15:44;10.43;65.14
74923;HTU21D;64715;44.760;37.678;2023-02-28T05:16:45;10.50;65.00
74923;HTU21D;64715;44.760;37.678;2023-02-28T05:17:46;10.55;64.58
74923;HTU21D;64715;44.760;37.678;2023-02-28T05:18:47;10.59;64.62
74923;HTU21D;64715;44.760;37.678;2023-02-28T05:19:48;10.63;64.37
74923;HTU21D;64715;44.760;37.678;2023-02-28T05:20:49;10.68;64.24
74923;HTU21D;64715;44.760;37.678;2023-02-28T05:21:54;10.72;63.95
74923;HTU21D;64715;44.760;37.678;2023-02-28T05:22:57;10.78;63.63
74923;HTU21D;64715;44.760;37.678;2023-02-28T05:24:02;10.79;63.55
74923;HTU21D;64715;44.760;37.678;2023-02-28T05:25:06;10.83;63.66
74923;HTU21D;64715;44.760;37.678;2023-02-28T05:26:07;10.87;63.53
74923;HTU21D;64715;44.760;37.678;2023-02-28T05:27:09;10.88;63.12
74923;HTU21D;64715;44.760;37.678;2023-02-28T05:28:10;10.94;63.24
74923;HTU21D;64715;44.760;37.678;2023-02-28T05:29:11;10.98;63.05
74923;HTU21D;64715;44.760;37.678;2023-02-28T05:30:12;11.00;63.08
74923;HTU21D;64715;44.760;37.678;2023-02-28T05:31:13;11.02;62.59
74923;HTU21D;64715;44.760;37.678;2023-02-28T05:32:14;11.09;62.70
74923;HTU21D;64715;44.760;37.678;2023-02-28T05:33:16;11.09;62.44
74923;HTU21D;64715;44.760;37.678;2023-02-28T05:34:17;11.12;62.35
74923;HTU21D;64715;44.760;37.678;2023-02-28T05:35:18;11.15;61.92
74923;HTU21D;64715;44.760;37.678;2023-02-28T05:36:19;11.18;61.85
74923;HTU21D;64715;44.760;37.678;2023-02-28T05:37:20;11.20;61.83
74923;HTU21D;64715;44.760;37.678;2023-02-28T05:38:21;11.23;61.84
74923;HTU21D;64715;44.760;37.678;2023-02-28T05:39:23;11.24;61.76
74923;HTU21D;64715;44.760;37.678;2023-02-28T05:40:24;11.30;61.68
74923;HTU21D;64715;44.760;37.678;2023-02-28T05:41:25;11.33;61.43
74923;HTU21D;64715;44.760;37.678;2023-02-28T05:42:26;11.36;61.35
74923;HTU21D;64715;44.760;37.678;2023-02-28T05:43:27;11.39;61.37
74923;HTU21D;64715;44.760;37.678;2023-02-28T05:44:28;11.43;61.07
74923;HTU21D;64715;44.760;37.678;2023-02-28T05:45:30;11.47;61.04
74923;HTU21D;64715;44.760;37.678;2023-02-28T05:46:31;11.53;60.97
74923;HTU21D;64715;44.760;37.678;2023-02-28T05:47:31;11.56;60.83
74923;HTU21D;64715;44.760;37.678;2023-02-28T05:48:34;11.59;60.72
74923;HTU21D;64715;44.760;37.678;2023-02-28T05:49:36;11.61;60.92
74923;HTU21D;64715;44.760;37.678;2023-02-28T05:50:36;11.63;60.28
74923;HTU21D;64715;44.760;37.678;2023-02-28T05:51:38;11.66;59.92
74923;HTU21D;64715;44.760;37.678;2023-02-28T05:52:40;11.68;59.90
74923;HTU21D;64715;44.760;37.678;2023-02-28T05:53:41;11.71;59.82
74923;HTU21D;64715;44.760;37.678;2023-02-28T05:54:42;11.71;59.58
74923;HTU21D;64715;44.760;37.678;2023-02-28T05:55:43;11.76;59.73
74923;HTU21D;64715;44.760;37.678;2023-02-28T05:56:44;11.77;59.22
74923;HTU21D;64715;44.760;37.678;2023-02-28T05:57:46;11.79;59.41
74923;HTU21D;64715;44.760;37.678;2023-02-28T05:58:47;11.82;59.57
74923;HTU21D;64715;44.760;37.678;2023-02-28T05:59:48;11.84;59.39
74923;HTU21D;64715;44.760;37.678;2023-02-28T06:00:49;11.87;59.38
74923;HTU21D;64715;44.760;37.678;2023-02-28T06:01:50;11.89;59.77
74923;HTU21D;64715;44.760;37.678;2023-02-28T06:02:51;11.92;59.06
74923;HTU21D;64715;44.760;37.678;2023-02-28T06:03:53;11.92;59.22
74923;HTU21D;64715;44.760;37.678;2023-02-28T06:04:55;11.93;59.24
74923;HTU21D;64715;44.760;37.678;2023-02-28T06:05:56;11.96;59.14
74923;HTU21D;64715;44.760;37.678;2023-02-28T06:06:57;11.98;59.11
74923;HTU21D;64715;44.760;37.678;2023-02-28T06:07:58;12.01;59.07
74923;HTU21D;64715;44.760;37.678;2023-02-28T06:08:59;12.02;58.84
74923;HTU21D;64715;44.760;37.678;2023-02-28T06:10:01;12.04;58.67
74923;HTU21D;64715;44.760;37.678;2023-02-28T06:11:05;12.07;58.56
74923;HTU21D;64715;44.760;37.678;2023-02-28T06:12:07;12.10;58.54
74923;HTU21D;64715;44.760;37.678;2023-02-28T06:13:10;12.12;58.38
74923;HTU21D;64715;44.760;37.678;2023-02-28T06:14:16;12.17;58.48
74923;HTU21D;64715;44.760;37.678;2023-02-28T06:15:17;12.18;58.42
74923;HTU21D;64715;44.760;37.678;2023-02-28T06:16:18;12.20;58.24
74923;HTU21D;64715;44.760;37.678;2023-02-28T06:17:19;12.23;58.02
74923;HTU21D;64715;44.760;37.678;2023-02-28T06:18:20;12.27;57.91
74923;HTU21D;64715;44.760;37.678;2023-02-28T06:19:21;12.32;57.80
74923;HTU21D;64715;44.760;37.678;2023-02-28T06:20:24;12.34;57.85
74923;HTU21D;64715;44.760;37.678;2023-02-28T06:21:27;12.37;57.59
74923;HTU21D;64715;44.760;37.678;2023-02-28T06:22:28;12.41;57.52
74923;HTU21D;64715;44.760;37.678;2023-02-28T06:23:30;12.45;57.48
74923;HTU21D;64715;44.760;37.678;2023-02-28T06:24:31;12.47;57.48
74923;HTU21D;64715;44.760;37.678;2023-02-28T06:25:32;12.49;57.15
74923;HTU21D;64715;44.760;37.678;2023-02-28T06:26:35;12.52;57.44
74923;HTU21D;64715;44.760;37.678;2023-02-28T06:27:36;12.57;57.21
74923;HTU21D;64715;44.760;37.678;2023-02-28T06:28:37;12.62;57.29
74923;HTU21D;64715;44.760;37.678;2023-02-28T06:29:38;12.66;57.06
74923;HTU21D;64715;44.760;37.678;2023-02-28T06:30:41;12.71;56.80
74923;HTU21D;64715;44.760;37.678;2023-02-28T06:31:43;12.75;56.66
74923;HTU21D;64715;44.760;37.678;2023-02-28T06:32:47;12.79;56.81
74923;HTU21D;64715;44.760;37.678;2023-02-28T06:33:50;12.81;56.64
74923;HTU21D;64715;44.760;37.678;2023-02-28T06:34:51;12.85;56.55
74923;HTU21D;64715;44.760;37.678;2023-02-28T06:35:52;12.87;56.12
74923;HTU21D;64715;44.760;37.678;2023-02-28T06:36:53;12.88;56.41
74923;HTU21D;64715;44.760;37.678;2023-02-28T06:37:54;12.92;56.14
74923;HTU21D;64715;44.760;37.678;2023-02-28T06:38:55;12.94;56.05
74923;HTU21D;64715;44.760;37.678;2023-02-28T06:39:56;12.97;56.14
74923;HTU21D;64715;44.760;37.678;2023-02-28T06:40:59;12.99;55.94
74923;HTU21D;64715;44.760;37.678;2023-02-28T06:42:01;13.03;55.64
74923;HTU21D;64715;44.760;37.678;2023-02-28T06:43:02;13.03;55.52
74923;HTU21D;64715;44.760;37.678;2023-02-28T06:44:05;13.05;55.52
74923;HTU21D;64715;44.760;37.678;2023-02-28T06:45:07;13.06;55.58
74923;HTU21D;64715;44.760;37.678;2023-02-28T06:46:12;13.08;55.39
74923;HTU21D;64715;44.760;37.678;2023-02-28T06:47:14;13.08;55.49
74923;HTU21D;64715;44.760;37.678;2023-02-28T06:48:15;13.09;55.68
74923;HTU21D;64715;44.760;37.678;2023-02-28T06:49:17;13.09;55.16
74923;HTU21D;64715;44.760;37.678;2023-02-28T06:50:18;13.10;55.32
74923;HTU21D;64715;44.760;37.678;2023-02-28T06:51:22;13.12;55.34
74923;HTU21D;64715;44.760;37.678;2023-02-28T06:52:24;13.15;55.47
74923;HTU21D;64715;44.760;37.678;2023-02-28T06:53:25;13.19;55.23
74923;HTU21D;64715;44.760;37.678;2023-02-28T06:54:26;13.21;55.33
74923;HTU21D;64715;44.760;37.678;2023-02-28T06:55:27;13.23;55.10
74923;HTU21D;64715;44.760;37.678;2023-02-28T06:56:28;13.26;55.04
74923;HTU21D;64715;44.760;37.678;2023-02-28T06:57:31;13.32;55.18
74923;HTU21D;64715;44.760;37.678;2023-02-28T06:58:32;13.33;55.13
74923;HTU21D;64715;44.760;37.678;2023-02-28T06:59:33;13.34;55.13
74923;HTU21D;64715;44.760;37.678;2023-02-28T07:00:36;13.41;54.81
74923;HTU21D;64715;44.760;37.678;2023-02-28T07:01:37;13.47;54.81
74923;HTU21D;64715;44.760;37.678;2023-02-28T07:02:39;13.51;54.60
74923;HTU21D;64715;44.760;37.678;2023-02-28T07:03:40;13.56;54.51
74923;HTU21D;64715;44.760;37.678;2023-02-28T07:04:41;13.61;54.42
74923;HTU21D;64715;44.760;37.678;2023-02-28T07:05:45;13.66;54.13
74923;HTU21D;64715;44.760;37.678;2023-02-28T07:06:46;13.73;53.95
74923;HTU21D;64715;44.760;37.678;2023-02-28T07:07:47;13.79;54.07
74923;HTU21D;64715;44.760;37.678;2023-02-28T07:08:49;13.85;53.82
74923;HTU21D;64715;44.760;37.678;2023-02-28T07:09:50;13.93;53.80
74923;HTU21D;64715;44.760;37.678;2023-02-28T07:10:54;13.97;53.39
74923;HTU21D;64715;44.760;37.678;2023-02-28T07:11:56;14.01;53.29